Time;durP1;ratioP1;P1;durP2;ratioP2;P2;SDS_P1;SDS_P2;PMS_P1;PMS_P2;Temp;Humidity;BMP_temperature;BMP_pressure;BME280_temperature;BME280_humidity;BME280_pressure;Samples;Min_cycle;Max_cycle;Signal;HPM_P1;HPM_P2
2021/06/14 00:01:45;;;;;;;8.83;4.60;;;16.40;36.10;;;;;;5117875;28;20461;-69
2021/06/14 00:04:12;;;;;;;5.70;4.40;;;16.40;37.60;;;;;;5117669;28;20455;-69
2021/06/14 00:06:38;;;;;;;9.07;4.60;;;16.40;40.30;;;;;;5117373;28;20456;-69
2021/06/14 00:09:10;;;;;;;6.43;4.70;;;16.40;48.70;;;;;;5117083;28;20760;-69
2021/06/14 00:11:40;;;;;;;9.77;4.97;;;16.40;72.80;;;;;;5117202;28;20543;-69
2021/06/14 00:14:07;;;;;;;7.20;5.30;;;16.30;99.90;;;;;;5117154;28;20477;-69
2021/06/14 00:16:35;;;;;;;5.93;4.60;;;16.30;99.90;;;;;;5117016;28;20469;-69
2021/06/14 00:19:02;;;;;;;4.67;4.10;;;16.30;99.90;;;;;;5117382;28;20452;-69
2021/06/14 00:21:29;;;;;;;8.57;5.20;;;16.20;99.90;;;;;;5116997;28;20466;-69
2021/06/14 00:23:58;;;;;;;8.20;4.40;;;16.20;99.90;;;;;;5116791;28;20452;-69
2021/06/14 00:26:25;;;;;;;6.37;4.77;;;16.20;99.90;;;;;;5117083;28;20456;-70
2021/06/14 00:28:53;;;;;;;10.40;4.70;;;16.10;99.90;;;;;;5117247;28;20483;-69
2021/06/14 00:31:20;;;;;;;6.30;5.10;;;16.00;99.90;;;;;;5117380;28;20463;-69
2021/06/14 00:33:48;;;;;;;7.00;4.80;;;16.10;99.90;;;;;;5116798;28;20476;-69
2021/06/14 00:36:15;;;;;;;8.60;5.30;;;16.00;99.90;;;;;;5117080;28;20765;-69
2021/06/14 00:38:41;;;;;;;8.17;5.10;;;16.00;99.90;;;;;;5117147;28;20448;-69
2021/06/14 00:41:11;;;;;;;9.87;5.00;;;16.00;99.90;;;;;;5116705;28;20533;-69
2021/06/14 00:43:39;;;;;;;6.63;4.63;;;15.90;99.90;;;;;;5116530;28;20804;-69
2021/06/14 00:46:09;;;;;;;10.37;5.63;;;15.90;99.90;;;;;;5116618;28;20488;-69
2021/06/14 00:48:36;;;;;;;7.67;5.37;;;15.90;99.90;;;;;;5116637;28;20894;-69
2021/06/14 00:51:05;;;;;;;8.00;5.10;;;15.90;99.90;;;;;;5116246;28;20452;-69
2021/06/14 00:53:33;;;;;;;11.20;5.20;;;15.80;99.90;;;;;;5116573;28;20456;-70
2021/06/14 00:56:05;;;;;;;8.93;6.10;;;15.80;1.00;;;;;;5116306;28;20921;-69
2021/06/14 00:58:32;;;;;;;7.10;5.40;;;15.80;1.00;;;;;;5116589;28;20436;-69
2021/06/14 01:00:59;;;;;;;7.03;4.90;;;15.80;1.00;;;;;;5116622;28;20452;-69
2021/06/14 01:03:28;;;;;;;11.50;5.40;;;15.70;1.00;;;;;;5116591;28;20464;-70
2021/06/14 01:05:57;;;;;;;11.33;4.90;;;15.70;1.00;;;;;;5116792;28;20452;-70
2021/06/14 01:08:24;;;;;;;6.87;5.20;;;15.70;1.00;;;;;;5116893;28;20463;-70
2021/06/14 01:10:51;;;;;;;8.30;5.57;;;15.70;1.00;;;;;;5116829;28;20513;-70
2021/06/14 01:13:32;;;;;;;6.53;4.47;;;15.70;1.00;;;;;;5116615;28;20512;-70
2021/06/14 01:16:12;;;;;;;8.40;5.60;;;15.70;1.00;;;;;;5116580;28;20725;-70
2021/06/14 01:18:48;;;;;;;8.20;5.43;;;15.60;1.00;;;;;;5116352;28;20437;-69
2021/06/14 01:21:20;;;;;;;11.97;5.47;;;15.60;1.00;;;;;;5116495;28;20447;-70
2021/06/14 01:24:22;;;;;;;6.47;5.10;;;15.60;1.00;;;;;;5116056;28;20439;-69
2021/06/14 01:27:01;;;;;;;7.50;5.80;;;15.50;1.00;;;;;;5115993;28;20539;-70
2021/06/14 01:29:30;;;;;;;8.87;5.80;;;15.50;1.00;;;;;;5116473;28;20470;-70
2021/06/14 01:31:58;;;;;;;6.47;5.70;;;15.50;1.00;;;;;;5115696;28;20935;-70
2021/06/14 01:34:28;;;;;;;8.83;5.57;;;15.40;1.00;;;;;;5115868;28;20487;-70
2021/06/14 01:36:56;;;;;;;8.97;5.20;;;15.40;1.00;;;;;;5117037;28;20555;-70
2021/06/14 01:39:25;;;;;;;8.70;5.40;;;15.40;1.00;;;;;;5116220;28;20480;-71
2021/06/14 01:41:54;;;;;;;7.33;5.47;;;15.40;43.80;;;;;;5115943;28;20460;-70
2021/06/14 01:44:23;;;;;;;9.90;5.57;;;15.40;99.90;;;;;;5116042;28;20467;-71
2021/06/14 01:46:55;;;;;;;9.80;5.77;;;15.40;99.90;;;;;;5115943;28;20846;-70
2021/06/14 01:49:22;;;;;;;7.40;5.40;;;15.40;99.90;;;;;;5116118;28;20535;-70
2021/06/14 01:51:51;;;;;;;8.53;6.23;;;15.40;99.90;;;;;;5115489;28;20456;-70
2021/06/14 01:54:19;;;;;;;6.93;5.53;;;15.30;99.90;;;;;;5116038;28;20480;-70
2021/06/14 01:56:50;;;;;;;7.00;5.20;;;15.30;99.90;;;;;;5116055;28;20475;-69
2021/06/14 01:59:19;;;;;;;11.20;5.70;;;15.30;99.90;;;;;;5116056;28;20475;-69
2021/06/14 02:01:48;;;;;;;10.97;5.80;;;15.30;99.90;;;;;;5115706;28;20460;-69
2021/06/14 02:04:18;;;;;;;7.97;5.30;;;15.30;99.90;;;;;;5115730;28;20448;-69
2021/06/14 02:06:47;;;;;;;6.17;5.50;;;15.30;99.90;;;;;;5115953;28;20441;-69
2021/06/14 02:09:17;;;;;;;8.80;5.97;;;15.30;1.00;;;;;;5115616;28;20453;-70
2021/06/14 02:11:47;;;;;;;9.50;5.43;;;15.30;1.00;;;;;;5115891;28;20520;-70
2021/06/14 02:14:15;;;;;;;9.20;5.10;;;15.30;1.00;;;;;;5115944;28;20476;-69
2021/06/14 02:16:44;;;;;;;9.90;5.50;;;15.20;1.00;;;;;;5115475;28;20460;-69
2021/06/14 02:19:12;;;;;;;6.33;5.10;;;15.30;1.00;;;;;;5115600;28;20471;-69
2021/06/14 02:21:41;;;;;;;7.43;5.77;;;15.20;99.90;;;;;;5115789;28;20460;-69
2021/06/14 02:24:08;;;;;;;8.30;5.00;;;15.20;1.00;;;;;;5115478;28;20463;-69
2021/06/14 02:26:35;;;;;;;6.37;5.00;;;15.20;1.00;;;;;;5116272;28;20456;-69
2021/06/14 02:29:02;;;;;;;10.07;6.10;;;15.20;1.00;;;;;;5115143;28;20456;-69
2021/06/14 02:31:28;;;;;;;8.40;5.13;;;15.20;1.00;;;;;;5115220;28;20467;-69
2021/06/14 02:33:55;;;;;;;7.03;5.27;;;15.20;1.00;;;;;;5115327;28;20463;-69
2021/06/14 02:36:23;;;;;;;11.13;5.57;;;15.20;1.00;;;;;;5115287;28;20456;-70
2021/06/14 02:38:51;;;;;;;8.97;5.40;;;15.20;1.00;;;;;;5115326;28;20452;-70
2021/06/14 02:41:19;;;;;;;7.77;5.20;;;15.20;1.00;;;;;;5115185;28;20460;-69
2021/06/14 02:43:46;;;;;;;11.07;5.13;;;15.10;1.00;;;;;;5115125;28;20460;-69
2021/06/14 02:46:14;;;;;;;13.70;5.57;;;15.10;99.90;;;;;;5116715;28;20487;-69
2021/06/14 02:48:42;;;;;;;8.00;5.37;;;15.10;99.90;;;;;;5119191;28;20437;-69
2021/06/14 02:51:09;;;;;;;10.30;6.03;;;15.10;99.90;;;;;;5118759;28;21040;-69
2021/06/14 02:53:37;;;;;;;13.03;5.20;;;15.10;99.90;;;;;;5118669;28;20466;-69
2021/06/14 02:56:08;;;;;;;7.30;5.50;;;15.10;99.90;;;;;;5119001;28;20975;-69
2021/06/14 02:58:38;;;;;;;6.30;5.40;;;15.10;1.00;;;;;;5118893;28;20448;-69
2021/06/14 03:01:05;;;;;;;9.57;6.00;;;15.00;1.00;;;;;;5118823;28;20466;-69
2021/06/14 03:03:33;;;;;;;10.03;6.43;;;15.00;1.00;;;;;;5118813;28;20456;-69
2021/06/14 03:06:00;;;;;;;8.17;5.33;;;15.00;1.00;;;;;;5118407;28;20522;-69
2021/06/14 03:08:27;;;;;;;7.00;5.30;;;15.00;1.00;;;;;;5118589;28;20456;-69
2021/06/14 03:10:55;;;;;;;8.97;4.83;;;15.00;99.90;;;;;;5118640;28;20466;-69
2021/06/14 03:13:23;;;;;;;7.80;4.97;;;15.00;99.90;;;;;;5118757;28;20491;-69
2021/06/14 03:15:50;;;;;;;7.70;5.47;;;15.00;1.00;;;;;;5118749;28;20476;-69
2021/06/14 03:18:18;;;;;;;13.27;5.80;;;15.00;1.00;;;;;;5118126;28;20525;-69
2021/06/14 03:20:46;;;;;;;9.20;5.53;;;15.00;1.00;;;;;;5118556;28;20451;-69
2021/06/14 03:23:15;;;;;;;6.70;5.87;;;15.00;1.00;;;;;;5118579;28;20464;-70
2021/06/14 03:25:42;;;;;;;11.70;4.67;;;15.00;1.00;;;;;;5118579;28;20796;-69
2021/06/14 03:28:11;;;;;;;8.90;5.33;;;15.00;46.90;;;;;;5118448;28;20479;-69
2021/06/14 03:30:41;;;;;;;9.20;5.70;;;15.00;63.90;;;;;;5118398;28;20475;-69
2021/06/14 03:33:10;;;;;;;9.83;5.73;;;15.10;99.90;;;;;;5118519;28;20452;-69
2021/06/14 03:35:37;;;;;;;9.60;5.33;;;15.10;99.90;;;;;;5118080;28;20472;-69
2021/06/14 03:38:05;;;;;;;9.97;4.87;;;15.10;99.90;;;;;;5118239;28;20456;-69
2021/06/14 03:40:32;;;;;;;6.53;5.10;;;15.10;13.40;;;;;;5118416;28;20492;-69
2021/06/14 03:43:00;;;;;;;10.97;5.60;;;15.10;1.00;;;;;;5118205;28;20456;-69
2021/06/14 03:45:28;;;;;;;11.43;6.07;;;15.10;1.00;;;;;;5118098;28;20460;-69
2021/06/14 03:47:56;;;;;;;8.00;6.03;;;15.10;1.00;;;;;;5118293;28;20948;-69
2021/06/14 03:50:23;;;;;;;15.63;5.93;;;15.20;1.00;;;;;;5117755;28;20456;-69
2021/06/14 03:52:50;;;;;;;9.90;6.00;;;15.20;1.00;;;;;;5118036;28;20792;-69
2021/06/14 03:55:17;;;;;;;10.60;6.30;;;15.20;99.90;;;;;;5117791;28;20502;-70
2021/06/14 03:57:44;;;;;;;7.30;5.07;;;15.20;99.90;;;;;;5117117;28;20464;-70
2021/06/14 04:00:13;;;;;;;13.90;5.23;;;15.20;99.90;;;;;;5117760;28;20456;-69
2021/06/14 04:02:40;;;;;;;8.43;5.53;;;15.30;1.00;;;;;;5117343;27;20925;-69
2021/06/14 04:05:10;;;;;;;8.97;5.70;;;15.30;1.00;;;;;;5117730;28;20750;-73
2021/06/14 04:07:37;;;;;;;7.23;5.43;;;15.40;1.00;;;;;;5117631;28;20551;-69
2021/06/14 04:10:05;;;;;;;7.80;5.37;;;15.50;99.90;;;;;;5117551;28;20467;-69
2021/06/14 04:12:32;;;;;;;8.07;6.27;;;15.50;1.00;;;;;;5117726;28;20456;-69
2021/06/14 04:14:59;;;;;;;13.33;6.57;;;15.60;1.00;;;;;;5117495;28;20480;-69
2021/06/14 04:17:28;;;;;;;8.57;5.87;;;15.60;99.90;;;;;;5117201;28;20456;-69
2021/06/14 04:19:54;;;;;;;7.67;5.53;;;15.60;99.90;;;;;;5117382;28;20798;-69
2021/06/14 04:22:23;;;;;;;9.47;5.90;;;15.60;36.40;;;;;;5116911;28;20862;-71
2021/06/14 04:24:49;;;;;;;6.87;5.43;;;15.60;1.00;;;;;;5117492;28;20456;-69
2021/06/14 04:27:17;;;;;;;7.77;4.70;;;15.60;57.00;;;;;;5117294;28;20835;-71
2021/06/14 04:29:44;;;;;;;12.10;6.30;;;15.60;99.90;;;;;;5117253;28;20456;-68
2021/06/14 04:32:11;;;;;;;8.20;5.80;;;15.70;99.90;;;;;;5116795;28;20453;-69
2021/06/14 04:34:38;;;;;;;9.90;5.77;;;15.70;99.90;;;;;;5117044;28;20479;-69
2021/06/14 04:37:05;;;;;;;8.40;6.80;;;15.80;99.90;;;;;;5116947;28;20467;-69
2021/06/14 04:39:33;;;;;;;9.40;5.80;;;15.80;1.00;;;;;;5117061;28;20832;-70
2021/06/14 04:42:00;;;;;;;8.87;6.27;;;15.90;1.00;;;;;;5116873;28;20464;-69
2021/06/14 04:44:27;;;;;;;7.60;5.40;;;15.90;99.90;;;;;;5117025;28;20518;-70
2021/06/14 04:46:53;;;;;;;9.00;5.80;;;16.00;1.00;;;;;;5116643;28;20472;-70
2021/06/14 04:49:20;;;;;;;10.33;6.03;;;16.00;99.90;;;;;;5117268;28;20532;-70
2021/06/14 04:51:47;;;;;;;11.80;6.40;;;16.10;99.90;;;;;;5117021;28;20980;-72
2021/06/14 04:54:14;;;;;;;10.13;6.40;;;16.10;99.90;;;;;;5116540;28;20457;-69
2021/06/14 04:56:42;;;;;;;9.30;5.90;;;16.20;51.30;;;;;;5116559;28;20473;-69
2021/06/14 04:59:09;;;;;;;13.70;7.00;;;16.20;3.50;;;;;;5116715;28;20471;-70
2021/06/14 05:01:35;;;;;;;11.50;6.90;;;16.30;1.00;;;;;;5116569;28;20468;-70
2021/06/14 05:04:02;;;;;;;12.27;6.40;;;16.30;1.00;;;;;;5116217;28;20457;-68
2021/06/14 05:06:30;;;;;;;13.87;6.20;;;16.40;1.00;;;;;;5116445;28;20523;-68
2021/06/14 05:08:57;;;;;;;13.57;6.77;;;16.40;1.00;;;;;;5115609;28;20452;-68
2021/06/14 05:11:24;;;;;;;12.17;6.10;;;16.50;1.00;;;;;;5116131;28;20452;-68
2021/06/14 05:13:54;;;;;;;9.60;6.13;;;16.60;1.00;;;;;;5116463;28;20452;-69
2021/06/14 05:16:20;;;;;;;13.90;6.10;;;16.60;1.00;;;;;;5115776;28;20468;-69
2021/06/14 05:18:47;;;;;;;8.80;5.80;;;16.70;1.00;;;;;;5116264;28;20452;-69
2021/06/14 05:21:19;;;;;;;8.67;5.80;;;16.70;1.00;;;;;;5115695;28;20453;-69
2021/06/14 05:23:46;;;;;;;10.50;5.97;;;16.80;1.00;;;;;;5116238;28;20900;-69
2021/06/14 05:26:13;;;;;;;9.60;6.13;;;16.90;1.00;;;;;;5116462;28;20536;-69
2021/06/14 05:28:40;;;;;;;9.37;5.37;;;16.90;1.00;;;;;;5116272;28;20460;-69
2021/06/14 05:31:08;;;;;;;7.60;5.30;;;17.00;99.90;;;;;;5115853;28;20453;-68
2021/06/14 05:33:34;;;;;;;9.20;5.27;;;17.10;99.90;;;;;;5115958;28;20482;-69
2021/06/14 05:36:01;;;;;;;9.10;5.60;;;17.10;99.90;;;;;;5115548;28;20537;-69
2021/06/14 05:38:28;;;;;;;9.20;4.87;;;17.20;99.90;;;;;;5115263;28;20463;-69
2021/06/14 05:40:54;;;;;;;12.50;6.27;;;17.20;99.90;;;;;;5115839;28;20479;-69
2021/06/14 05:43:21;;;;;;;8.53;5.20;;;17.30;99.90;;;;;;5115736;28;20461;-69
2021/06/14 05:45:48;;;;;;;8.27;5.87;;;17.30;99.90;;;;;;5115339;28;20776;-69
2021/06/14 05:48:16;;;;;;;10.97;5.43;;;17.40;99.90;;;;;;5115481;28;20447;-69
2021/06/14 05:50:43;;;;;;;11.50;5.67;;;17.40;99.90;;;;;;5115417;28;20467;-69
2021/06/14 05:53:10;;;;;;;17.87;5.57;;;17.50;99.90;;;;;;5115667;28;20453;-69
2021/06/14 05:55:36;;;;;;;8.93;5.40;;;17.50;99.90;;;;;;5115374;28;20479;-69
2021/06/14 05:58:03;;;;;;;13.70;5.73;;;17.60;99.90;;;;;;5114899;28;20798;-69
2021/06/14 06:00:30;;;;;;;10.57;5.47;;;17.60;99.90;;;;;;5115053;28;20465;-69
2021/06/14 06:02:57;;;;;;;14.03;5.73;;;17.70;99.90;;;;;;5115097;28;20467;-68
2021/06/14 06:05:25;;;;;;;10.10;4.90;;;17.80;99.90;;;;;;5115456;28;20753;-69
2021/06/14 06:07:52;;;;;;;8.93;4.63;;;17.80;99.90;;;;;;5115551;28;20464;-69
2021/06/14 06:10:19;;;;;;;8.90;4.67;;;17.90;99.90;;;;;;5115342;28;20463;-69
2021/06/14 06:12:46;;;;;;;10.60;4.50;;;17.90;99.90;;;;;;5115399;28;20456;-69
2021/06/14 06:15:16;;;;;;;8.10;5.30;;;17.90;99.90;;;;;;5115010;28;20460;-69
2021/06/14 06:17:43;;;;;;;5.93;4.60;;;17.90;99.90;;;;;;5114930;28;20440;-69
2021/06/14 06:20:13;;;;;;;7.67;5.30;;;18.00;99.90;;;;;;5117312;28;20460;-69
2021/06/14 06:22:42;;;;;;;10.83;4.60;;;18.00;99.90;;;;;;5119099;28;20456;-69
2021/06/14 06:25:12;;;;;;;7.53;4.37;;;18.10;97.10;;;;;;5119408;28;20530;-70
2021/06/14 06:27:38;;;;;;;6.30;4.50;;;18.10;88.90;;;;;;5119385;28;20508;-69
2021/06/14 06:30:08;;;;;;;7.40;4.63;;;18.10;70.40;;;;;;5118917;28;20932;-69
2021/06/14 06:32:35;;;;;;;8.80;5.20;;;18.10;58.90;;;;;;5119316;28;20512;-69
2021/06/14 06:35:02;;;;;;;8.50;4.90;;;18.10;53.60;;;;;;5119258;28;20467;-71
2021/06/14 06:37:29;;;;;;;8.17;4.07;;;18.20;57.60;;;;;;5119311;28;20777;-69
2021/06/14 06:39:57;;;;;;;10.97;4.60;;;18.20;52.60;;;;;;5119112;28;20452;-69
2021/06/14 06:42:24;;;;;;;6.37;4.03;;;18.20;48.40;;;;;;5120131;28;20469;-69
2021/06/14 06:44:51;;;;;;;8.97;4.30;;;18.30;42.30;;;;;;5118507;28;20455;-69
2021/06/14 06:47:18;;;;;;;10.47;5.27;;;18.30;49.50;;;;;;5118635;28;20567;-71
2021/06/14 06:49:45;;;;;;;10.03;4.33;;;18.30;56.10;;;;;;5118893;28;20456;-69
2021/06/14 06:52:12;;;;;;;10.40;4.70;;;18.30;43.60;;;;;;5118753;28;20456;-70
2021/06/14 06:54:39;;;;;;;13.50;4.03;;;18.40;35.10;;;;;;5118588;28;20456;-70
2021/06/14 06:57:08;;;;;;;6.53;3.90;;;18.40;33.70;;;;;;5118788;28;20480;-70
2021/06/14 06:59:35;;;;;;;7.43;4.03;;;18.50;36.20;;;;;;5118766;27;20531;-68
2021/06/14 07:02:01;;;;;;;7.63;3.90;;;18.50;33.30;;;;;;5118550;28;20456;-70
2021/06/14 07:04:28;;;;;;;6.00;3.97;;;18.60;29.40;;;;;;5118913;28;20452;-69
2021/06/14 07:06:55;;;;;;;5.47;3.87;;;18.70;24.30;;;;;;5118682;28;20458;-69
2021/06/14 07:09:21;;;;;;;4.47;3.40;;;18.70;13.80;;;;;;5118674;28;20477;-69
2021/06/14 07:11:48;;;;;;;6.43;3.97;;;18.70;5.70;;;;;;5118156;28;20467;-69
2021/06/14 07:14:16;;;;;;;9.70;4.57;;;18.80;1.20;;;;;;5118806;28;20772;-69
2021/06/14 07:16:43;;;;;;;11.33;4.60;;;18.90;2.90;;;;;;5118649;28;20476;-69
2021/06/14 07:19:10;;;;;;;8.17;3.97;;;19.00;1.00;;;;;;5118563;28;20471;-69
2021/06/14 07:21:36;;;;;;;6.93;4.20;;;19.00;9.80;;;;;;5118920;28;20467;-70
2021/06/14 07:24:04;;;;;;;6.30;4.43;;;19.00;1.00;;;;;;5119172;28;20778;-70
2021/06/14 07:26:30;;;;;;;5.37;3.83;;;19.00;1.00;;;;;;5119487;28;20464;-70
2021/06/14 07:28:57;;;;;;;8.40;3.43;;;19.10;1.00;;;;;;5118943;28;20448;-69
2021/06/14 07:31:25;;;;;;;8.17;4.07;;;19.10;1.00;;;;;;5118489;28;20791;-70
2021/06/14 07:33:52;;;;;;;6.97;3.83;;;19.10;1.00;;;;;;5118777;28;20460;-70
2021/06/14 07:36:19;;;;;;;9.67;4.43;;;19.20;1.00;;;;;;5118072;28;20472;-69
2021/06/14 07:38:46;;;;;;;7.67;4.17;;;19.20;1.00;;;;;;5118586;28;20467;-69
2021/06/14 07:41:14;;;;;;;5.03;3.30;;;19.20;1.00;;;;;;5118315;28;20453;-68
2021/06/14 07:43:40;;;;;;;11.50;4.13;;;19.30;1.00;;;;;;5118168;28;20457;-69
2021/06/14 07:46:07;;;;;;;9.30;3.80;;;19.30;1.00;;;;;;5117989;28;20480;-69
2021/06/14 07:48:36;;;;;;;9.40;3.60;;;19.40;1.00;;;;;;5118013;28;20832;-69
2021/06/14 07:51:07;;;;;;;4.37;3.47;;;19.40;1.00;;;;;;5117871;28;20461;-69
2021/06/14 07:53:34;;;;;;;7.23;3.67;;;19.40;1.00;;;;;;5118057;28;20453;-69
2021/06/14 07:56:02;;;;;;;5.20;3.90;;;19.50;1.00;;;;;;5117634;28;20598;-68
2021/06/14 07:58:29;;;;;;;6.37;3.57;;;19.50;1.00;;;;;;5117911;28;20540;-68
2021/06/14 08:00:56;;;;;;;6.27;3.97;;;19.50;1.00;;;;;;5118381;28;20456;-69
2021/06/14 08:03:24;;;;;;;9.23;4.00;;;19.60;1.00;;;;;;5118711;28;20464;-69
2021/06/14 08:05:53;;;;;;;5.80;3.53;;;19.60;1.00;;;;;;5117673;28;20551;-69
2021/06/14 08:08:20;;;;;;;9.80;3.50;;;19.70;1.00;;;;;;5117592;28;20456;-69
2021/06/14 08:10:48;;;;;;;6.70;3.40;;;19.70;1.00;;;;;;5117701;28;20462;-68
2021/06/14 08:13:15;;;;;;;10.37;3.60;;;19.70;1.00;;;;;;5117455;28;20484;-69
2021/06/14 08:15:42;;;;;;;4.27;3.50;;;19.80;1.00;;;;;;5117854;28;20457;-69
2021/06/14 08:21:07;;;;;;;9.20;3.37;;;20.00;1.00;;;;;;5113804;28;20505;-70
2021/06/14 08:26:22;;;;;;;4.30;3.37;;;20.10;1.00;;;;;;5118183;28;20459;-69
2021/06/14 08:28:49;;;;;;;6.30;2.80;;;20.10;1.00;;;;;;5118913;28;20452;-69
2021/06/14 08:31:16;;;;;;;6.73;3.03;;;20.10;1.00;;;;;;5117334;28;20943;-69
2021/06/14 08:33:42;;;;;;;7.87;3.00;;;20.10;1.00;;;;;;5117294;28;20461;-69
2021/06/14 08:36:11;;;;;;;5.73;3.30;;;20.10;1.00;;;;;;5117799;28;20483;-69
2021/06/14 08:38:38;;;;;;;4.37;3.10;;;20.20;1.00;;;;;;5117058;28;20464;-69
2021/06/14 08:41:04;;;;;;;7.07;4.10;;;20.20;1.00;;;;;;5117076;28;20456;-69
2021/06/14 08:43:31;;;;;;;7.70;3.17;;;20.20;1.00;;;;;;5117229;28;20468;-69
2021/06/14 08:45:58;;;;;;;8.30;3.47;;;20.30;1.00;;;;;;5116888;28;20495;-70
2021/06/14 08:48:26;;;;;;;9.90;3.10;;;20.30;1.00;;;;;;5117129;28;20907;-69
2021/06/14 08:50:53;;;;;;;8.33;4.20;;;20.30;1.00;;;;;;5117247;28;20457;-70
2021/06/14 08:53:21;;;;;;;7.60;3.30;;;20.50;1.00;;;;;;5116957;28;20464;-69
2021/06/14 08:55:49;;;;;;;5.00;3.00;;;20.50;1.00;;;;;;5116590;28;20452;-69
2021/06/14 08:58:15;;;;;;;8.70;3.13;;;20.50;1.00;;;;;;5116865;28;20545;-70
2021/06/14 09:00:42;;;;;;;4.03;3.07;;;20.50;1.00;;;;;;5116431;28;20456;-71
2021/06/14 09:03:09;;;;;;;6.63;2.93;;;20.60;1.00;;;;;;5116450;28;20448;-71
2021/06/14 09:05:36;;;;;;;3.47;3.17;;;20.60;1.00;;;;;;5116853;28;20924;-69
2021/06/14 09:08:07;;;;;;;6.50;2.83;;;20.70;1.00;;;;;;5116703;27;20452;-69
2021/06/14 09:10:37;;;;;;;4.00;3.00;;;20.80;1.00;;;;;;5116613;28;20452;-69
2021/06/14 09:13:15;;;;;;;6.73;2.67;;;20.80;1.00;;;;;;5116585;28;20881;-69
2021/06/14 09:15:43;;;;;;;3.40;2.50;;;20.90;1.00;;;;;;5116466;28;20766;-69
2021/06/14 09:18:22;;;;;;;5.20;3.23;;;21.00;1.00;;;;;;5116340;28;20471;-69
2021/06/14 09:20:57;;;;;;;4.37;3.00;;;21.10;1.00;;;;;;5115921;28;20436;-69
2021/06/14 09:23:25;;;;;;;5.00;2.90;;;21.20;1.00;;;;;;5116188;28;20785;-68
2021/06/14 09:25:54;;;;;;;3.00;2.70;;;21.20;1.00;;;;;;5116281;28;20749;-69
2021/06/14 09:28:20;;;;;;;3.23;2.93;;;21.20;1.00;;;;;;5116539;28;20464;-68
2021/06/14 09:30:47;;;;;;;3.83;2.63;;;21.20;1.00;;;;;;5115820;28;20467;-68
2021/06/14 09:33:25;;;;;;;9.23;2.50;;;21.30;1.00;;;;;;5116131;28;20552;-68
2021/06/14 09:35:53;;;;;;;7.63;3.93;;;21.30;1.00;;;;;;5116172;28;20471;-69
2021/06/14 09:38:23;;;;;;;7.73;3.07;;;21.40;1.00;;;;;;5116273;28;20477;-69
2021/06/14 09:40:51;;;;;;;5.10;3.17;;;21.50;1.00;;;;;;5115997;28;20463;-70
2021/06/14 09:43:28;;;;;;;6.37;2.73;;;21.60;1.00;;;;;;5116054;28;20908;-69
2021/06/14 09:45:56;;;;;;;6.50;2.87;;;21.60;1.00;;;;;;5115895;28;20512;-69
2021/06/14 09:48:25;;;;;;;5.40;2.90;;;21.70;1.00;;;;;;5115976;28;20433;-68
2021/06/14 09:50:54;;;;;;;5.57;3.30;;;21.80;1.00;;;;;;5115632;28;20460;-68
2021/06/14 09:53:23;;;;;;;6.80;2.63;;;21.90;1.00;;;;;;5115495;28;20452;-69
2021/06/14 09:55:52;;;;;;;6.70;2.50;;;22.00;1.00;;;;;;5115240;28;20463;-69
2021/06/14 09:58:22;;;;;;;4.30;2.97;;;22.00;1.00;;;;;;5115297;28;20476;-68
2021/06/14 10:00:52;;;;;;;3.47;2.60;;;22.00;1.00;;;;;;5115849;28;20448;-69
2021/06/14 10:03:20;;;;;;;4.07;3.17;;;22.00;1.00;;;;;;5115693;28;20472;-70
2021/06/14 10:05:49;;;;;;;4.87;3.03;;;22.00;1.00;;;;;;5115503;28;20466;-69
2021/06/14 10:08:25;;;;;;;9.93;3.00;;;22.10;1.00;;;;;;5116232;28;20505;-68
2021/06/14 10:11:00;;;;;;;6.23;2.57;;;22.20;1.00;;;;;;5116484;28;20840;-69
2021/06/14 10:13:28;;;;;;;3.63;2.67;;;22.20;1.00;;;;;;5115527;28;20440;-69
2021/06/14 10:16:01;;;;;;;5.63;2.90;;;22.20;1.00;;;;;;5115982;28;20462;-68
2021/06/14 10:18:35;;;;;;;4.70;2.80;;;22.30;1.00;;;;;;5115325;28;20840;-69
2021/06/14 10:21:06;;;;;;;7.03;2.90;;;22.30;1.00;;;;;;5115626;28;20910;-70
2021/06/14 10:23:33;;;;;;;7.73;2.93;;;22.40;1.00;;;;;;5115587;28;20445;-68
2021/06/14 10:26:00;;;;;;;2.93;2.63;;;22.40;1.00;;;;;;5115489;28;20493;-68
2021/06/14 10:28:28;;;;;;;12.17;2.90;;;22.50;1.00;;;;;;5116211;28;20464;-68
2021/06/14 10:30:56;;;;;;;3.40;2.53;;;22.60;1.00;;;;;;5115127;28;20460;-69
2021/06/14 10:33:24;;;;;;;3.83;2.70;;;22.70;1.00;;;;;;5115524;28;20464;-68
2021/06/14 10:35:53;;;;;;;5.63;2.57;;;22.70;1.00;;;;;;5114908;28;20471;-68
2021/06/14 10:38:21;;;;;;;3.80;3.00;;;22.80;1.00;;;;;;5114400;28;20534;-68
2021/06/14 10:40:51;;;;;;;5.47;3.03;;;22.90;1.00;;;;;;5114865;28;20463;-69
2021/06/14 10:43:24;;;;;;;3.70;2.67;;;23.00;1.00;;;;;;5114950;28;20871;-68
2021/06/14 10:45:51;;;;;;;6.90;2.70;;;23.00;1.00;;;;;;5114807;28;20471;-68
2021/06/14 10:48:28;;;;;;;7.70;2.57;;;23.00;1.00;;;;;;5115005;28;20440;-68
2021/06/14 10:50:55;;;;;;;5.37;2.50;;;23.00;1.00;;;;;;5115243;28;20436;-69
2021/06/14 10:53:30;;;;;;;4.70;2.97;;;23.00;1.00;;;;;;5114950;28;20456;-68
2021/06/14 10:56:00;;;;;;;3.80;2.47;;;23.10;1.00;;;;;;5115481;28;20439;-68
2021/06/14 10:58:30;;;;;;;5.63;3.00;;;23.20;1.00;;;;;;5114827;28;20480;-67
2021/06/14 11:01:02;;;;;;;4.10;2.50;;;23.20;1.00;;;;;;5114885;28;20517;-68
2021/06/14 11:03:42;;;;;;;4.60;3.07;;;23.30;1.00;;;;;;5114907;28;20483;-68
2021/06/14 11:06:21;;;;;;;3.60;2.23;;;23.30;1.00;;;;;;5115296;28;20776;-68
2021/06/14 11:09:10;;;;;;;5.23;2.60;;;23.20;1.00;;;;;;5118927;28;20510;-68
2021/06/14 11:11:57;;;;;;;4.90;2.50;;;23.30;1.00;;;;;;5118913;28;20436;-68
2021/06/14 11:14:33;;;;;;;4.47;2.57;;;23.40;1.00;;;;;;5119153;28;20523;-69
2021/06/14 11:17:02;;;;;;;3.30;2.20;;;23.50;1.00;;;;;;5119024;28;20486;-68
2021/06/14 11:19:37;;;;;;;4.10;2.43;;;23.70;1.00;;;;;;5118519;28;20459;-67
2021/06/14 11:22:05;;;;;;;4.70;2.20;;;24.10;1.00;;;;;;5118131;28;20436;-67
2021/06/14 11:24:37;;;;;;;12.33;2.20;;;24.70;1.00;;;;;;5118727;28;20803;-67
2021/06/14 11:27:06;;;;;;;2.60;2.17;;;25.30;1.00;;;;;;5118490;28;20947;-67
2021/06/14 11:29:45;;;;;;;3.13;2.50;;;26.00;1.00;;;;;;5118049;28;20517;-67
2021/06/14 11:32:17;;;;;;;2.17;1.97;;;26.60;1.00;;;;;;5117860;28;20437;-67
2021/06/14 11:34:47;;;;;;;4.00;2.40;;;27.10;1.00;;;;;;5118081;28;20455;-67
2021/06/14 11:37:13;;;;;;;2.80;1.90;;;27.70;1.00;;;;;;5117909;28;20477;-67
2021/06/14 11:39:41;;;;;;;5.97;2.47;;;28.10;1.00;;;;;;5118437;28;20445;-67
2021/06/14 11:42:10;;;;;;;4.40;2.10;;;28.60;1.00;;;;;;5117688;28;20456;-67
2021/06/14 11:44:38;;;;;;;7.73;2.03;;;29.10;1.00;;;;;;5118054;28;20460;-67
2021/06/14 11:47:15;;;;;;;3.60;2.10;;;29.50;1.00;;;;;;5117407;28;20487;-68
2021/06/14 11:49:45;;;;;;;5.30;2.40;;;30.10;1.00;;;;;;5117847;28;20467;-68
2021/06/14 11:52:17;;;;;;;4.03;1.90;;;30.70;1.00;;;;;;5117720;28;20452;-68
2021/06/14 11:54:44;;;;;;;3.03;1.87;;;31.30;1.00;;;;;;5117452;28;20468;-68
2021/06/14 11:57:10;;;;;;;3.00;2.20;;;32.10;1.00;;;;;;5117750;28;20477;-68
2021/06/14 11:59:38;;;;;;;2.23;1.60;;;32.50;1.00;;;;;;5117417;28;20456;-68
2021/06/14 12:02:18;;;;;;;2.43;1.93;;;32.90;1.00;;;;;;5117617;28;20496;-68
2021/06/14 12:04:46;;;;;;;6.40;2.17;;;33.30;1.00;;;;;;5117371;28;20831;-68
2021/06/14 12:07:13;;;;;;;8.13;1.73;;;33.30;1.00;;;;;;5117092;28;20765;-67
2021/06/14 12:09:40;;;;;;;6.23;2.33;;;32.80;1.00;;;;;;5117660;28;20775;-68
2021/06/14 12:12:08;;;;;;;5.97;2.83;;;31.60;1.00;;;;;;5117254;28;20456;-68
2021/06/14 12:14:35;;;;;;;3.63;1.93;;;31.40;1.00;;;;;;5117285;28;20911;-69
2021/06/14 12:17:04;;;;;;;3.10;2.03;;;31.70;1.00;;;;;;5117082;28;20513;-68
2021/06/14 12:19:32;;;;;;;2.63;2.03;;;32.20;1.00;;;;;;5117055;28;20456;-68
2021/06/14 12:22:04;;;;;;;3.90;2.17;;;32.30;1.00;;;;;;5117057;28;20463;-69
2021/06/14 12:24:33;;;;;;;2.30;2.00;;;32.40;1.00;;;;;;5117337;28;20441;-69
2021/06/14 12:27:02;;;;;;;2.30;2.00;;;32.60;1.00;;;;;;5116997;28;20484;-69
2021/06/14 12:29:30;;;;;;;2.23;1.60;;;33.10;1.00;;;;;;5116680;28;20452;-69
2021/06/14 12:32:02;;;;;;;4.23;1.83;;;33.30;1.00;;;;;;5116817;28;20543;-69
2021/06/14 12:34:29;;;;;;;3.00;1.83;;;33.10;1.00;;;;;;5116830;28;20488;-68
2021/06/14 12:37:05;;;;;;;2.00;1.80;;;33.00;1.00;;;;;;5116982;28;20773;-68
2021/06/14 12:39:32;;;;;;;3.17;1.90;;;32.90;1.00;;;;;;5117583;28;20848;-70
2021/06/14 12:41:59;;;;;;;1.90;1.53;;;33.20;1.00;;;;;;5117296;28;20463;-69
2021/06/14 12:44:26;;;;;;;2.17;1.60;;;33.30;1.00;;;;;;5117275;28;20819;-69
2021/06/14 12:46:54;;;;;;;4.50;1.90;;;33.50;1.00;;;;;;5117309;28;20793;-70
2021/06/14 12:49:25;;;;;;;3.47;1.63;;;33.80;1.00;;;;;;5117361;28;20453;-68
2021/06/14 12:51:52;;;;;;;5.07;1.60;;;34.00;1.00;;;;;;5116478;28;20452;-69
2021/06/14 12:54:20;;;;;;;2.47;1.80;;;34.00;1.00;;;;;;5117272;27;20452;-69
2021/06/14 12:56:52;;;;;;;2.90;1.43;;;33.90;1.00;;;;;;5116396;28;20463;-68
2021/06/14 12:59:19;;;;;;;2.07;1.67;;;33.70;1.00;;;;;;5116630;28;20499;-68
2021/06/14 13:01:46;;;;;;;2.50;1.87;;;33.50;1.00;;;;;;5116518;28;20462;-70
2021/06/14 13:04:13;;;;;;;3.97;1.50;;;33.40;1.00;;;;;;5116437;28;20503;-69
2021/06/14 13:06:42;;;;;;;4.07;1.87;;;33.70;1.00;;;;;;5116700;28;20806;-69